sensor_id;sensor_type;location;lat;lon;timestamp;pressure;altitude;pressure_sealevel;temperature;humidity
59971;BME280;45825;45.434;9.116;2023-06-26T00:00:12;100199.56;;;27.26;45.18
59971;BME280;45825;45.434;9.116;2023-06-26T00:02:37;100201.44;;;27.03;46.05
59971;BME280;45825;45.434;9.116;2023-06-26T00:05:04;100194.91;;;26.91;46.31
59971;BME280;45825;45.434;9.116;2023-06-26T00:07:30;100199.78;;;26.81;46.80
59971;BME280;45825;45.434;9.116;2023-06-26T00:09:57;100196.16;;;26.88;46.87
59971;BME280;45825;45.434;9.116;2023-06-26T00:12:22;100198.38;;;27.07;46.12
59971;BME280;45825;45.434;9.116;2023-06-26T00:14:47;100198.25;;;27.15;46.14
59971;BME280;45825;45.434;9.116;2023-06-26T00:17:13;100203.47;;;27.23;46.02
59971;BME280;45825;45.434;9.116;2023-06-26T00:19:38;100194.91;;;26.91;46.69
59971;BME280;45825;45.434;9.116;2023-06-26T00:22:03;100200.94;;;27.15;46.36
59971;BME280;45825;45.434;9.116;2023-06-26T00:24:29;100199.84;;;27.38;45.49
59971;BME280;45825;45.434;9.116;2023-06-26T00:26:54;100196.34;;;27.44;45.26
59971;BME280;45825;45.434;9.116;2023-06-26T00:29:19;100196.88;;;27.61;44.76
59971;BME280;45825;45.434;9.116;2023-06-26T00:31:45;100206.91;;;27.67;44.65
59971;BME280;45825;45.434;9.116;2023-06-26T00:34:10;100204.19;;;27.67;44.70
59971;BME280;45825;45.434;9.116;2023-06-26T00:36:35;100208.75;;;27.67;44.75
59971;BME280;45825;45.434;9.116;2023-06-26T00:39:00;100209.13;;;27.57;45.38
59971;BME280;45825;45.434;9.116;2023-06-26T00:41:26;100208.13;;;26.86;46.70
59971;BME280;45825;45.434;9.116;2023-06-26T00:43:51;100217.97;;;26.50;48.04
59971;BME280;45825;45.434;9.116;2023-06-26T00:46:16;100211.22;;;26.39;48.91
59971;BME280;45825;45.434;9.116;2023-06-26T00:48:43;100215.13;;;26.36;49.07
59971;BME280;45825;45.434;9.116;2023-06-26T00:51:09;100207.41;;;26.33;49.61
59971;BME280;45825;45.434;9.116;2023-06-26T00:53:35;100213.97;;;26.24;50.24
59971;BME280;45825;45.434;9.116;2023-06-26T00:56:01;100214.00;;;26.46;49.66
59971;BME280;45825;45.434;9.116;2023-06-26T00:58:27;100216.63;;;26.61;49.31
59971;BME280;45825;45.434;9.116;2023-06-26T01:00:52;100210.72;;;26.72;49.21
59971;BME280;45825;45.434;9.116;2023-06-26T01:03:19;100211.59;;;26.80;49.26
59971;BME280;45825;45.434;9.116;2023-06-26T01:05:45;100202.94;;;26.84;49.15
59971;BME280;45825;45.434;9.116;2023-06-26T01:08:12;100221.91;;;26.91;49.43
59971;BME280;45825;45.434;9.116;2023-06-26T01:10:38;100216.16;;;26.35;50.32
59971;BME280;45825;45.434;9.116;2023-06-26T01:13:04;100215.69;;;26.17;50.88
59971;BME280;45825;45.434;9.116;2023-06-26T01:15:30;100213.41;;;25.99;51.24
59971;BME280;45825;45.434;9.116;2023-06-26T01:17:57;100217.69;;;25.93;51.19
59971;BME280;45825;45.434;9.116;2023-06-26T01:20:25;100213.69;;;26.19;50.10
59971;BME280;45825;45.434;9.116;2023-06-26T01:23:19;100209.34;;;26.40;49.94
59971;BME280;45825;45.434;9.116;2023-06-26T01:26:19;100210.41;;;26.60;49.43
59971;BME280;45825;45.434;9.116;2023-06-26T01:28:45;100214.19;;;26.66;48.87
59971;BME280;45825;45.434;9.116;2023-06-26T01:31:12;100206.47;;;26.63;49.07
59971;BME280;45825;45.434;9.116;2023-06-26T01:33:38;100206.75;;;26.16;50.24
59971;BME280;45825;45.434;9.116;2023-06-26T01:36:05;100203.75;;;26.04;50.38
59971;BME280;45825;45.434;9.116;2023-06-26T01:38:31;100201.44;;;25.86;50.82
59971;BME280;45825;45.434;9.116;2023-06-26T01:40:56;100209.69;;;26.00;50.86
59971;BME280;45825;45.434;9.116;2023-06-26T01:43:31;100208.56;;;26.24;49.96
59971;BME280;45825;45.434;9.116;2023-06-26T01:46:03;100210.19;;;26.40;49.26
59971;BME280;45825;45.434;9.116;2023-06-26T01:48:45;100209.47;;;26.53;48.99
59971;BME280;45825;45.434;9.116;2023-06-26T01:51:14;100206.47;;;26.63;48.45
59971;BME280;45825;45.434;9.116;2023-06-26T01:53:45;100203.44;;;26.51;49.12
59971;BME280;45825;45.434;9.116;2023-06-26T01:56:13;100211.94;;;25.81;50.70
59971;BME280;45825;45.434;9.116;2023-06-26T01:58:43;100202.47;;;25.85;50.76
59971;BME280;45825;45.434;9.116;2023-06-26T02:01:10;100207.97;;;25.77;50.75
59971;BME280;45825;45.434;9.116;2023-06-26T02:03:36;100211.84;;;25.89;50.33
59971;BME280;45825;45.434;9.116;2023-06-26T02:06:01;100205.22;;;26.07;49.81
59971;BME280;45825;45.434;9.116;2023-06-26T02:08:27;100198.34;;;26.19;49.47
59971;BME280;45825;45.434;9.116;2023-06-26T02:10:52;100202.59;;;26.29;49.20
59971;BME280;45825;45.434;9.116;2023-06-26T02:13:17;100212.22;;;26.38;48.69
59971;BME280;45825;45.434;9.116;2023-06-26T02:15:42;100208.13;;;26.42;49.05
59971;BME280;45825;45.434;9.116;2023-06-26T02:18:08;100214.56;;;26.41;48.76
59971;BME280;45825;45.434;9.116;2023-06-26T02:20:33;100216.13;;;25.84;50.46
59971;BME280;45825;45.434;9.116;2023-06-26T02:25:34;100218.44;;;25.87;50.52
59971;BME280;45825;45.434;9.116;2023-06-26T02:27:59;100218.66;;;25.70;50.88
59971;BME280;45825;45.434;9.116;2023-06-26T02:30:24;100219.47;;;25.56;51.44
59971;BME280;45825;45.434;9.116;2023-06-26T02:32:49;100217.63;;;25.56;51.16
59971;BME280;45825;45.434;9.116;2023-06-26T02:35:15;100216.31;;;25.82;50.61
59971;BME280;45825;45.434;9.116;2023-06-26T02:37:40;100216.84;;;25.92;50.04
59971;BME280;45825;45.434;9.116;2023-06-26T02:40:06;100217.84;;;26.06;50.13
59971;BME280;45825;45.434;9.116;2023-06-26T02:42:33;100216.72;;;26.16;49.94
59971;BME280;45825;45.434;9.116;2023-06-26T02:44:58;100230.31;;;26.22;49.30
59971;BME280;45825;45.434;9.116;2023-06-26T02:47:23;100225.09;;;26.21;49.77
59971;BME280;45825;45.434;9.116;2023-06-26T02:49:48;100223.72;;;26.25;49.45
59971;BME280;45825;45.434;9.116;2023-06-26T02:52:14;100222.16;;;26.01;50.14
59971;BME280;45825;45.434;9.116;2023-06-26T02:54:39;100235.28;;;25.59;51.07
59971;BME280;45825;45.434;9.116;2023-06-26T02:57:04;100239.66;;;25.36;51.79
59971;BME280;45825;45.434;9.116;2023-06-26T02:59:30;100237.31;;;25.18;52.54
59971;BME280;45825;45.434;9.116;2023-06-26T03:01:55;100240.22;;;25.47;51.67
59971;BME280;45825;45.434;9.116;2023-06-26T03:04:20;100235.16;;;25.67;50.96
59971;BME280;45825;45.434;9.116;2023-06-26T03:06:47;100233.50;;;25.81;50.71
59971;BME280;45825;45.434;9.116;2023-06-26T03:09:12;100234.22;;;25.90;50.56
59971;BME280;45825;45.434;9.116;2023-06-26T03:11:37;100230.78;;;25.96;49.84
59971;BME280;45825;45.434;9.116;2023-06-26T03:14:02;100235.25;;;26.04;49.89
59971;BME280;45825;45.434;9.116;2023-06-26T03:16:28;100233.56;;;26.03;50.20
59971;BME280;45825;45.434;9.116;2023-06-26T03:18:53;100234.81;;;25.85;50.42
59971;BME280;45825;45.434;9.116;2023-06-26T03:21:18;100240.03;;;25.33;51.93
59971;BME280;45825;45.434;9.116;2023-06-26T03:23:43;100252.81;;;25.16;52.35
59971;BME280;45825;45.434;9.116;2023-06-26T03:26:09;100250.66;;;25.11;52.55
59971;BME280;45825;45.434;9.116;2023-06-26T03:28:34;100252.06;;;25.22;52.32
59971;BME280;45825;45.434;9.116;2023-06-26T03:31:00;100263.19;;;25.43;51.86
59971;BME280;45825;45.434;9.116;2023-06-26T03:33:25;100262.00;;;25.60;50.99
59971;BME280;45825;45.434;9.116;2023-06-26T03:35:50;100265.56;;;25.76;50.81
59971;BME280;45825;45.434;9.116;2023-06-26T03:38:16;100258.38;;;25.83;50.42
59971;BME280;45825;45.434;9.116;2023-06-26T03:40:41;100262.47;;;25.94;50.16
59971;BME280;45825;45.434;9.116;2023-06-26T03:43:06;100259.50;;;26.04;49.97
59971;BME280;45825;45.434;9.116;2023-06-26T03:45:31;100263.97;;;25.28;51.94
59971;BME280;45825;45.434;9.116;2023-06-26T03:47:57;100263.03;;;24.97;52.81
59971;BME280;45825;45.434;9.116;2023-06-26T03:50:22;100259.59;;;24.89;53.05
59971;BME280;45825;45.434;9.116;2023-06-26T03:52:47;100261.06;;;24.91;53.09
59971;BME280;45825;45.434;9.116;2023-06-26T03:55:14;100273.06;;;25.27;51.97
59971;BME280;45825;45.434;9.116;2023-06-26T03:57:40;100263.44;;;25.48;51.73
59971;BME280;45825;45.434;9.116;2023-06-26T04:00:06;100264.13;;;25.65;50.99
59971;BME280;45825;45.434;9.116;2023-06-26T04:02:34;100268.44;;;25.74;50.87
59971;BME280;45825;45.434;9.116;2023-06-26T04:04:59;100266.13;;;25.86;50.68
59971;BME280;45825;45.434;9.116;2023-06-26T04:07:25;100267.50;;;25.97;50.06
59971;BME280;45825;45.434;9.116;2023-06-26T04:09:50;100267.09;;;26.00;50.27
59971;BME280;45825;45.434;9.116;2023-06-26T04:12:16;100268.25;;;25.76;50.78
59971;BME280;45825;45.434;9.116;2023-06-26T04:14:41;100274.59;;;25.45;51.91
59971;BME280;45825;45.434;9.116;2023-06-26T04:17:06;100273.44;;;25.24;52.59
59971;BME280;45825;45.434;9.116;2023-06-26T04:19:32;100276.84;;;25.18;52.94
59971;BME280;45825;45.434;9.116;2023-06-26T04:21:57;100274.28;;;25.39;52.20
59971;BME280;45825;45.434;9.116;2023-06-26T04:24:23;100273.41;;;25.62;51.79
59971;BME280;45825;45.434;9.116;2023-06-26T04:26:48;100270.38;;;25.80;51.37
59971;BME280;45825;45.434;9.116;2023-06-26T04:29:13;100281.53;;;25.92;50.97
59971;BME280;45825;45.434;9.116;2023-06-26T04:31:39;100280.88;;;26.05;50.93
59971;BME280;45825;45.434;9.116;2023-06-26T04:34:05;100276.41;;;26.13;50.74
59971;BME280;45825;45.434;9.116;2023-06-26T04:36:30;100276.53;;;26.19;50.75
59971;BME280;45825;45.434;9.116;2023-06-26T04:38:57;100274.66;;;26.20;51.03
59971;BME280;45825;45.434;9.116;2023-06-26T04:41:22;100273.91;;;26.26;50.72
59971;BME280;45825;45.434;9.116;2023-06-26T04:43:47;100276.09;;;25.47;52.83
59971;BME280;45825;45.434;9.116;2023-06-26T04:46:13;100284.50;;;25.44;52.97
59971;BME280;45825;45.434;9.116;2023-06-26T04:48:38;100283.75;;;25.59;52.33
59971;BME280;45825;45.434;9.116;2023-06-26T04:51:03;100285.91;;;26.24;50.54
59971;BME280;45825;45.434;9.116;2023-06-26T04:53:29;100278.56;;;26.54;49.71
59971;BME280;45825;45.434;9.116;2023-06-26T04:55:54;100284.44;;;26.58;49.83
59971;BME280;45825;45.434;9.116;2023-06-26T04:58:20;100273.06;;;26.62;49.78
59971;BME280;45825;45.434;9.116;2023-06-26T05:00:46;100270.00;;;26.66;49.42
59971;BME280;45825;45.434;9.116;2023-06-26T05:03:12;100270.84;;;26.66;49.59
59971;BME280;45825;45.434;9.116;2023-06-26T05:05:38;100274.06;;;26.76;48.99
59971;BME280;45825;45.434;9.116;2023-06-26T05:08:17;100271.59;;;26.82;48.54
59971;BME280;45825;45.434;9.116;2023-06-26T05:10:44;100271.50;;;26.90;48.84
59971;BME280;45825;45.434;9.116;2023-06-26T05:13:09;100274.66;;;26.94;48.86
59971;BME280;45825;45.434;9.116;2023-06-26T05:15:35;100275.69;;;26.92;48.70
59971;BME280;45825;45.434;9.116;2023-06-26T05:18:00;100281.34;;;26.98;48.66
59971;BME280;45825;45.434;9.116;2023-06-26T05:20:25;100282.81;;;27.00;49.01
59971;BME280;45825;45.434;9.116;2023-06-26T05:22:50;100286.44;;;27.08;48.59
59971;BME280;45825;45.434;9.116;2023-06-26T05:25:18;100292.28;;;27.11;48.65
59971;BME280;45825;45.434;9.116;2023-06-26T05:27:43;100298.13;;;27.15;48.46
59971;BME280;45825;45.434;9.116;2023-06-26T05:30:09;100295.28;;;27.23;48.37
59971;BME280;45825;45.434;9.116;2023-06-26T05:32:35;100288.06;;;27.30;47.36
59971;BME280;45825;45.434;9.116;2023-06-26T05:35:03;100276.44;;;27.30;47.72
59971;BME280;45825;45.434;9.116;2023-06-26T05:37:31;100290.00;;;27.37;47.58
59971;BME280;45825;45.434;9.116;2023-06-26T05:39:56;100286.91;;;27.40;47.52
59971;BME280;45825;45.434;9.116;2023-06-26T05:42:22;100280.91;;;27.44;47.22
59971;BME280;45825;45.434;9.116;2023-06-26T05:44:47;100286.94;;;27.46;48.27
59971;BME280;45825;45.434;9.116;2023-06-26T05:47:12;100282.38;;;27.47;47.74
59971;BME280;45825;45.434;9.116;2023-06-26T05:49:38;100281.59;;;27.53;49.23
59971;BME280;45825;45.434;9.116;2023-06-26T05:52:03;100286.00;;;27.54;47.87
59971;BME280;45825;45.434;9.116;2023-06-26T05:54:29;100286.31;;;27.44;47.80
59971;BME280;45825;45.434;9.116;2023-06-26T05:56:57;100285.19;;;27.32;48.44
59971;BME280;45825;45.434;9.116;2023-06-26T05:59:24;100283.84;;;27.50;48.05
59971;BME280;45825;45.434;9.116;2023-06-26T06:01:51;100289.53;;;27.55;47.56
59971;BME280;45825;45.434;9.116;2023-06-26T06:04:16;100289.59;;;27.40;47.07
59971;BME280;45825;45.434;9.116;2023-06-26T06:06:42;100290.13;;;27.28;47.39
59971;BME280;45825;45.434;9.116;2023-06-26T06:09:07;100289.50;;;27.26;47.88
59971;BME280;45825;45.434;9.116;2023-06-26T06:11:32;100293.72;;;27.36;48.62
59971;BME280;45825;45.434;9.116;2023-06-26T06:13:57;100299.66;;;27.53;48.04
59971;BME280;45825;45.434;9.116;2023-06-26T06:16:25;100295.75;;;27.55;47.50
59971;BME280;45825;45.434;9.116;2023-06-26T06:18:50;100297.81;;;27.53;46.85
59971;BME280;45825;45.434;9.116;2023-06-26T06:21:15;100303.88;;;27.33;46.70
59971;BME280;45825;45.434;9.116;2023-06-26T06:23:40;100300.50;;;27.25;47.48
59971;BME280;45825;45.434;9.116;2023-06-26T06:26:06;100295.66;;;27.20;47.77
59971;BME280;45825;45.434;9.116;2023-06-26T06:28:31;100292.84;;;27.28;47.65
59971;BME280;45825;45.434;9.116;2023-06-26T06:30:56;100299.59;;;27.17;47.92
59971;BME280;45825;45.434;9.116;2023-06-26T06:33:21;100298.00;;;27.01;48.41
59971;BME280;45825;45.434;9.116;2023-06-26T06:35:47;100298.19;;;27.22;49.18
59971;BME280;45825;45.434;9.116;2023-06-26T06:38:12;100293.88;;;27.27;48.30
59971;BME280;45825;45.434;9.116;2023-06-26T06:40:37;100291.47;;;27.39;48.42
59971;BME280;45825;45.434;9.116;2023-06-26T06:43:03;100289.06;;;27.51;47.78
59971;BME280;45825;45.434;9.116;2023-06-26T06:45:28;100291.78;;;27.51;48.21
59971;BME280;45825;45.434;9.116;2023-06-26T06:47:53;100291.44;;;27.61;48.32
59971;BME280;45825;45.434;9.116;2023-06-26T06:50:19;100293.41;;;27.74;48.78
59971;BME280;45825;45.434;9.116;2023-06-26T06:52:45;100296.34;;;27.79;47.64
59971;BME280;45825;45.434;9.116;2023-06-26T06:55:10;100292.91;;;27.64;47.43
59971;BME280;45825;45.434;9.116;2023-06-26T06:57:37;100299.41;;;27.69;47.86
59971;BME280;45825;45.434;9.116;2023-06-26T07:00:08;100293.50;;;27.59;47.31
59971;BME280;45825;45.434;9.116;2023-06-26T07:02:35;100287.50;;;27.64;47.60
59971;BME280;45825;45.434;9.116;2023-06-26T07:05:01;100287.38;;;27.72;47.51
59971;BME280;45825;45.434;9.116;2023-06-26T07:07:29;100292.34;;;27.46;47.21
59971;BME280;45825;45.434;9.116;2023-06-26T07:09:56;100296.13;;;27.52;47.44
59971;BME280;45825;45.434;9.116;2023-06-26T07:12:21;100292.25;;;27.55;47.19
59971;BME280;45825;45.434;9.116;2023-06-26T07:14:46;100290.19;;;27.57;47.35
59971;BME280;45825;45.434;9.116;2023-06-26T07:17:12;100293.56;;;27.66;46.34
59971;BME280;45825;45.434;9.116;2023-06-26T07:19:37;100297.81;;;27.82;47.24
59971;BME280;45825;45.434;9.116;2023-06-26T07:22:02;100300.38;;;27.90;46.28
59971;BME280;45825;45.434;9.116;2023-06-26T07:24:28;100287.94;;;28.02;45.94
59971;BME280;45825;45.434;9.116;2023-06-26T07:26:53;100298.75;;;28.02;45.75
59971;BME280;45825;45.434;9.116;2023-06-26T07:29:18;100291.53;;;28.10;45.85
59971;BME280;45825;45.434;9.116;2023-06-26T07:31:43;100294.44;;;28.08;46.36
59971;BME280;45825;45.434;9.116;2023-06-26T07:34:10;100288.97;;;27.95;46.49
59971;BME280;45825;45.434;9.116;2023-06-26T07:36:35;100289.00;;;28.01;45.95
59971;BME280;45825;45.434;9.116;2023-06-26T07:39:00;100286.81;;;28.19;45.88
59971;BME280;45825;45.434;9.116;2023-06-26T07:41:26;100293.63;;;28.14;45.42
59971;BME280;45825;45.434;9.116;2023-06-26T07:43:51;100284.03;;;28.05;45.32
59971;BME280;45825;45.434;9.116;2023-06-26T07:46:16;100285.16;;;27.82;45.46
59971;BME280;45825;45.434;9.116;2023-06-26T07:48:42;100280.13;;;27.79;45.63
59971;BME280;45825;45.434;9.116;2023-06-26T07:51:07;100279.25;;;27.72;46.18
59971;BME280;45825;45.434;9.116;2023-06-26T07:53:32;100286.34;;;27.73;45.75
59971;BME280;45825;45.434;9.116;2023-06-26T07:55:57;100278.94;;;27.88;45.96
59971;BME280;45825;45.434;9.116;2023-06-26T07:58:23;100284.66;;;28.07;45.20
59971;BME280;45825;45.434;9.116;2023-06-26T08:00:48;100277.41;;;28.14;45.45
59971;BME280;45825;45.434;9.116;2023-06-26T08:03:14;100279.06;;;28.15;45.98
59971;BME280;45825;45.434;9.116;2023-06-26T08:05:39;100278.72;;;28.25;45.85
59971;BME280;45825;45.434;9.116;2023-06-26T08:08:04;100280.25;;;28.41;46.19
59971;BME280;45825;45.434;9.116;2023-06-26T08:10:30;100283.56;;;28.37;44.87
59971;BME280;45825;45.434;9.116;2023-06-26T08:12:55;100280.66;;;28.38;44.26
59971;BME280;45825;45.434;9.116;2023-06-26T08:15:21;100277.69;;;28.33;44.37
59971;BME280;45825;45.434;9.116;2023-06-26T08:17:46;100281.53;;;28.46;44.95
59971;BME280;45825;45.434;9.116;2023-06-26T08:20:12;100287.59;;;28.61;45.27
59971;BME280;45825;45.434;9.116;2023-06-26T08:22:37;100285.13;;;28.73;45.07
59971;BME280;45825;45.434;9.116;2023-06-26T08:25:03;100280.81;;;28.85;44.39
59971;BME280;45825;45.434;9.116;2023-06-26T08:27:30;100281.22;;;28.89;44.71
59971;BME280;45825;45.434;9.116;2023-06-26T08:29:55;100278.09;;;28.92;44.08
59971;BME280;45825;45.434;9.116;2023-06-26T08:32:21;100280.63;;;29.07;44.04
59971;BME280;45825;45.434;9.116;2023-06-26T08:34:46;100279.16;;;29.18;44.11
59971;BME280;45825;45.434;9.116;2023-06-26T08:37:11;100271.25;;;29.23;43.66
59971;BME280;45825;45.434;9.116;2023-06-26T08:39:37;100276.47;;;29.32;43.40
59971;BME280;45825;45.434;9.116;2023-06-26T08:42:02;100266.44;;;29.32;42.34
59971;BME280;45825;45.434;9.116;2023-06-26T08:44:27;100271.66;;;29.40;42.07
59971;BME280;45825;45.434;9.116;2023-06-26T08:46:53;100265.81;;;29.50;41.99
59971;BME280;45825;45.434;9.116;2023-06-26T08:49:21;100264.16;;;29.49;41.89
59971;BME280;45825;45.434;9.116;2023-06-26T08:51:59;100261.44;;;29.56;41.85
59971;BME280;45825;45.434;9.116;2023-06-26T08:54:34;100266.63;;;29.71;41.69
59971;BME280;45825;45.434;9.116;2023-06-26T08:57:01;100259.31;;;29.78;41.36
59971;BME280;45825;45.434;9.116;2023-06-26T08:59:27;100255.56;;;29.79;41.27
59971;BME280;45825;45.434;9.116;2023-06-26T09:01:53;100259.28;;;29.92;41.44
59971;BME280;45825;45.434;9.116;2023-06-26T09:04:19;100251.09;;;29.98;40.86
59971;BME280;45825;45.434;9.116;2023-06-26T09:06:44;100249.84;;;30.08;39.96
59971;BME280;45825;45.434;9.116;2023-06-26T09:09:09;100247.53;;;30.11;40.25
59971;BME280;45825;45.434;9.116;2023-06-26T09:11:35;100249.38;;;30.18;40.11
59971;BME280;45825;45.434;9.116;2023-06-26T09:14:01;100244.56;;;30.27;40.14
59971;BME280;45825;45.434;9.116;2023-06-26T09:16:30;100244.53;;;30.33;40.13
59971;BME280;45825;45.434;9.116;2023-06-26T09:18:56;100250.75;;;30.34;40.60
59971;BME280;45825;45.434;9.116;2023-06-26T09:21:21;100246.53;;;30.45;40.49
59971;BME280;45825;45.434;9.116;2023-06-26T09:23:49;100244.19;;;30.55;40.31
59971;BME280;45825;45.434;9.116;2023-06-26T09:26:14;100244.34;;;30.60;39.82
59971;BME280;45825;45.434;9.116;2023-06-26T09:28:42;100237.88;;;30.68;40.13
59971;BME280;45825;45.434;9.116;2023-06-26T09:31:07;100234.28;;;30.74;40.40
59971;BME280;45825;45.434;9.116;2023-06-26T09:33:34;100233.56;;;30.86;40.63
59971;BME280;45825;45.434;9.116;2023-06-26T09:36:04;100239.50;;;30.76;40.83
59971;BME280;45825;45.434;9.116;2023-06-26T09:38:30;100231.94;;;30.46;41.80
59971;BME280;45825;45.434;9.116;2023-06-26T09:40:55;100229.69;;;30.36;41.90
59971;BME280;45825;45.434;9.116;2023-06-26T09:43:21;100226.06;;;30.49;41.25
59971;BME280;45825;45.434;9.116;2023-06-26T09:45:46;100227.50;;;30.51;40.67
59971;BME280;45825;45.434;9.116;2023-06-26T09:48:13;100227.56;;;30.45;40.92
59971;BME280;45825;45.434;9.116;2023-06-26T09:50:41;100220.50;;;30.37;41.03
59971;BME280;45825;45.434;9.116;2023-06-26T09:53:13;100219.31;;;30.58;40.99
59971;BME280;45825;45.434;9.116;2023-06-26T09:55:39;100224.75;;;30.58;40.60
59971;BME280;45825;45.434;9.116;2023-06-26T09:58:06;100214.72;;;30.59;40.45
59971;BME280;45825;45.434;9.116;2023-06-26T10:00:31;100214.06;;;30.63;40.23
59971;BME280;45825;45.434;9.116;2023-06-26T10:02:57;100213.56;;;30.80;39.83
59971;BME280;45825;45.434;9.116;2023-06-26T10:05:23;100211.19;;;30.90;38.92
59971;BME280;45825;45.434;9.116;2023-06-26T10:07:48;100214.78;;;30.84;37.75
59971;BME280;45825;45.434;9.116;2023-06-26T10:10:16;100211.75;;;30.67;37.74
59971;BME280;45825;45.434;9.116;2023-06-26T10:12:43;100203.97;;;30.77;37.75
59971;BME280;45825;45.434;9.116;2023-06-26T10:15:13;100204.28;;;30.88;37.62
59971;BME280;45825;45.434;9.116;2023-06-26T10:17:44;100211.72;;;30.99;37.59
59971;BME280;45825;45.434;9.116;2023-06-26T10:20:13;100205.63;;;31.04;37.12
59971;BME280;45825;45.434;9.116;2023-06-26T10:22:46;100203.88;;;31.16;37.17
59971;BME280;45825;45.434;9.116;2023-06-26T10:25:15;100195.47;;;30.92;37.23
59971;BME280;45825;45.434;9.116;2023-06-26T10:27:45;100199.47;;;31.15;37.58
59971;BME280;45825;45.434;9.116;2023-06-26T10:30:18;100201.34;;;31.15;37.85
59971;BME280;45825;45.434;9.116;2023-06-26T10:32:46;100201.19;;;31.09;37.66
59971;BME280;45825;45.434;9.116;2023-06-26T10:35:12;100203.28;;;31.07;37.48
59971;BME280;45825;45.434;9.116;2023-06-26T10:37:45;100202.34;;;31.20;37.60
59971;BME280;45825;45.434;9.116;2023-06-26T10:40:12;100196.28;;;31.25;37.56
59971;BME280;45825;45.434;9.116;2023-06-26T10:42:39;100197.06;;;31.32;38.13
59971;BME280;45825;45.434;9.116;2023-06-26T10:45:15;100188.22;;;31.56;37.96
59971;BME280;45825;45.434;9.116;2023-06-26T10:47:41;100193.19;;;31.59;37.84
59971;BME280;45825;45.434;9.116;2023-06-26T10:50:27;100192.97;;;31.60;38.43
59971;BME280;45825;45.434;9.116;2023-06-26T10:55:34;100188.06;;;31.88;37.97
59971;BME280;45825;45.434;9.116;2023-06-26T10:58:00;100181.72;;;31.94;38.00
59971;BME280;45825;45.434;9.116;2023-06-26T11:00:27;100183.59;;;31.94;38.40
59971;BME280;45825;45.434;9.116;2023-06-26T11:02:52;100184.19;;;31.96;38.07
59971;BME280;45825;45.434;9.116;2023-06-26T11:05:33;100192.31;;;31.84;38.47
59971;BME280;45825;45.434;9.116;2023-06-26T11:08:09;100188.72;;;32.02;38.06
59971;BME280;45825;45.434;9.116;2023-06-26T11:10:52;100186.78;;;31.90;38.10
59971;BME280;45825;45.434;9.116;2023-06-26T11:13:19;100177.28;;;31.81;38.05
59971;BME280;45825;45.434;9.116;2023-06-26T11:15:45;100182.97;;;32.10;37.59
59971;BME280;45825;45.434;9.116;2023-06-26T11:18:12;100181.63;;;32.31;37.09
59971;BME280;45825;45.434;9.116;2023-06-26T11:20:37;100172.94;;;32.53;36.62
59971;BME280;45825;45.434;9.116;2023-06-26T11:23:04;100175.81;;;32.58;36.11
59971;BME280;45825;45.434;9.116;2023-06-26T11:25:34;100177.34;;;32.24;36.74
59971;BME280;45825;45.434;9.116;2023-06-26T11:28:00;100176.84;;;32.45;36.72
59971;BME280;45825;45.434;9.116;2023-06-26T11:30:26;100171.69;;;32.68;36.54
59971;BME280;45825;45.434;9.116;2023-06-26T11:32:51;100172.97;;;32.77;36.15
59971;BME280;45825;45.434;9.116;2023-06-26T11:35:23;100179.06;;;32.91;35.87
59971;BME280;45825;45.434;9.116;2023-06-26T11:37:56;100178.28;;;32.48;36.35
59971;BME280;45825;45.434;9.116;2023-06-26T11:40:22;100172.03;;;32.83;36.20
59971;BME280;45825;45.434;9.116;2023-06-26T11:42:52;100173.94;;;32.83;35.64
59971;BME280;45825;45.434;9.116;2023-06-26T11:45:19;100167.69;;;32.94;35.76
59971;BME280;45825;45.434;9.116;2023-06-26T11:47:45;100169.25;;;33.02;35.84
59971;BME280;45825;45.434;9.116;2023-06-26T11:50:15;100159.16;;;32.91;35.82
59971;BME280;45825;45.434;9.116;2023-06-26T11:52:41;100162.72;;;33.03;36.20
59971;BME280;45825;45.434;9.116;2023-06-26T11:55:07;100152.84;;;32.90;35.52
59971;BME280;45825;45.434;9.116;2023-06-26T11:57:32;100159.50;;;32.94;35.15
59971;BME280;45825;45.434;9.116;2023-06-26T11:59:57;100152.53;;;32.98;35.61
59971;BME280;45825;45.434;9.116;2023-06-26T12:02:23;100154.31;;;33.16;35.20
59971;BME280;45825;45.434;9.116;2023-06-26T12:04:48;100150.81;;;33.45;35.38
59971;BME280;45825;45.434;9.116;2023-06-26T12:07:14;100142.88;;;33.55;35.11
59971;BME280;45825;45.434;9.116;2023-06-26T12:09:46;100144.25;;;33.70;35.10
59971;BME280;45825;45.434;9.116;2023-06-26T12:14:47;100142.56;;;33.28;34.83
59971;BME280;45825;45.434;9.116;2023-06-26T12:17:13;100152.03;;;33.37;34.94
59971;BME280;45825;45.434;9.116;2023-06-26T12:19:42;100143.75;;;33.20;35.26
59971;BME280;45825;45.434;9.116;2023-06-26T12:22:08;100143.50;;;33.46;35.39
59971;BME280;45825;45.434;9.116;2023-06-26T12:24:39;100137.63;;;33.66;35.21
59971;BME280;45825;45.434;9.116;2023-06-26T12:27:08;100137.06;;;33.52;34.63
59971;BME280;45825;45.434;9.116;2023-06-26T12:29:35;100140.72;;;33.69;34.73
59971;BME280;45825;45.434;9.116;2023-06-26T12:32:01;100138.34;;;33.61;34.95
59971;BME280;45825;45.434;9.116;2023-06-26T12:34:34;100129.69;;;33.64;35.06
59971;BME280;45825;45.434;9.116;2023-06-26T12:37:01;100129.56;;;33.71;34.53
59971;BME280;45825;45.434;9.116;2023-06-26T12:39:28;100129.44;;;33.66;34.67
59971;BME280;45825;45.434;9.116;2023-06-26T12:41:57;100130.19;;;33.61;35.23
59971;BME280;45825;45.434;9.116;2023-06-26T12:44:27;100129.72;;;33.81;34.84
59971;BME280;45825;45.434;9.116;2023-06-26T12:46:57;100125.34;;;33.51;34.46
59971;BME280;45825;45.434;9.116;2023-06-26T12:49:39;100122.63;;;33.51;34.91
59971;BME280;45825;45.434;9.116;2023-06-26T12:52:07;100121.75;;;33.63;34.83
59971;BME280;45825;45.434;9.116;2023-06-26T12:54:37;100118.81;;;33.81;34.86